Latest Weather Observations for Jervis Bay Airfield

IDN60801

Issued at 6:23 pm EST Saturday 9 May 2026 (issued every 10 minutes, with the page automatically refreshed every 10 minutes)

About weather observations | Map of weather stations | Latest weather observations for NSW | Other Formats
Station Details ID: 068264 Name: JERVIS BAY AIRFIELD AWS Lat: -35.14 Lon: 150.70 Height: 57.18 m
Data from the previous 72 hours. | See also: Recent months at Jervis Bay Airfield
Date/Time
EST
Temp
°C
App
Temp
°C
Dew
Point
°C
Rel
Hum
%
Delta-T
°C
Wind Press
QNH
hPa
Press
MSL
hPa
Rain since
9am
mm
Dir  Spd
km/h
Gust
km/h
Spd
kts
Gust
kts
09/06:00pm 12.5 12.1 8.4 76 2.0 CALM 0 0 0 0 1024.9 1024.8 0.0
09/05:30pm 14.1 13.8 8.7 70 2.7 CALM 0 0 0 0 1024.5 1024.4 0.0
09/05:00pm 15.9 14.3 8.6 62 3.7 SSW 7 11 4 6 1024.1 1024.0 0.0
09/04:30pm 17.3 14.9 8.7 57 4.4 S 11 15 6 8 1023.9 1023.8 0.0
09/04:00pm 17.5 14.2 8.1 54 4.8 SSE 15 19 8 10 1023.8 1023.7 0.0
09/03:30pm 17.9 14.6 8.2 53 5.0 SSE 15 19 8 10 1023.7 1023.6 0.0
09/03:00pm 18.0 14.5 7.4 50 5.3 S 15 20 8 11 1023.7 1023.6 0.0
09/02:30pm 18.3 15.5 8.6 53 5.0 S 13 19 7 10 1023.7 1023.6 0.0
09/02:00pm 18.3 14.8 8.6 53 5.0 SSW 17 20 9 11 1023.6 1023.5 0.0
09/01:30pm 18.3 14.8 8.8 54 4.9 SSW 17 22 9 12 1023.8 1023.7 0.0
09/01:00pm 18.2 14.7 8.7 54 4.9 SSW 17 24 9 13 1024.0 1023.9 0.0
09/12:30pm 18.2 15.3 8.2 52 5.1 SW 13 20 7 11 1024.3 1024.2 0.0
09/12:00pm 18.1 14.4 7.8 51 5.2 SW 17 24 9 13 1024.7 1024.6 0.0
09/11:30am 18.4 14.8 8.4 52 5.2 SW 17 24 9 13 1025.0 1024.9 0.0
09/11:00am 18.1 14.4 8.1 52 5.1 SSW 17 22 9 12 1025.1 1025.0 0.0
09/10:30am 18.1 14.7 7.8 51 5.3 SSW 15 22 8 12 1025.2 1025.1 0.0
09/10:00am 17.9 14.6 8.2 53 5.0 SSW 15 20 8 11 1025.3 1025.2 0.0
09/09:30am 17.0 14.4 9.2 60 4.1 W 13 17 7 9 1025.2 1025.1 0.0
09/09:00am 16.3 14.4 10.4 68 3.1 W 11 17 6 9 1025.1 1025.0 0.0
09/08:30am 16.1 14.3 9.3 64 3.5 SW 9 13 5 7 1024.9 1024.8 0.0
09/08:00am 13.9 12.0 9.1 73 2.4 SW 9 17 5 9 1024.5 1024.4 0.0
09/07:30am 12.8 10.6 7.9 72 2.4 SW 9 11 5 6 1024.3 1024.2 0.0
09/07:00am 10.8 8.9 7.7 81 1.5 WSW 7 9 4 5 1023.9 1023.8 0.0
09/06:30am 11.5 8.3 7.0 74 2.2 W 13 13 7 7 1023.6 1023.5 0.0
09/06:00am 11.8 9.0 7.1 73 2.2 W 11 13 6 7 1023.1 1023.0 0.0
09/05:30am 12.7 9.8 6.5 66 3.0 W 11 13 6 7 1022.7 1022.6 0.0
09/05:00am 14.1 11.0 7.2 63 3.4 WSW 13 17 7 9 1022.5 1022.4 0.0
09/04:30am 13.7 10.9 6.8 63 3.3 W 11 15 6 8 1022.3 1022.2 0.0
09/04:00am 13.6 10.4 6.7 63 3.3 W 13 17 7 9 1022.0 1021.9 0.0
09/03:30am 13.7 10.6 7.2 65 3.2 WNW 13 17 7 9 1021.9 1021.8 0.0
09/03:00am 14.0 11.0 7.5 65 3.2 WNW 13 17 7 9 1022.0 1021.9 0.0
09/02:30am 14.5 12.0 8.0 65 3.2 W 11 15 6 8 1021.9 1021.8 0.0
09/02:00am 14.0 11.1 8.0 67 3.0 W 13 15 7 8 1021.9 1021.8 0.0
09/01:30am 14.1 11.6 8.1 67 3.0 W 11 15 6 8 1021.9 1021.8 0.0
09/01:00am 14.0 11.3 7.5 65 3.2 W 11 15 6 8 1021.9 1021.8 0.0
09/12:30am 14.1 11.2 8.1 67 3.0 WNW 13 17 7 9 1021.6 1021.5 0.0
09/12:00am 14.2 11.2 7.7 65 3.2 W 13 19 7 10 1021.4 1021.3 0.0
 
Date/Time
EST
Temp
°C
App
Temp
°C
Dew
Point
°C
Rel
Hum
%
Delta-T
°C
Wind Press
QNH
hPa
Press
MSL
hPa
Rain since
9am
mm
Dir  Spd
km/h
Gust
km/h
Spd
kts
Gust
kts
08/11:30pm 14.3 11.7 7.6 64 3.3 W 11 15 6 8 1021.5 1021.4 0.0
08/11:00pm 14.2 11.6 7.9 66 3.1 W 11 17 6 9 1021.4 1021.3 0.0
08/10:30pm 13.9 11.4 8.1 68 2.9 W 11 15 6 8 1021.3 1021.2 0.0
08/10:00pm 14.2 11.8 8.6 69 2.8 W 11 17 6 9 1021.3 1021.2 0.0
08/09:30pm 14.3 11.3 7.8 65 3.2 W 13 17 7 9 1021.0 1020.9 0.0
08/09:00pm 14.1 11.7 8.5 69 2.8 W 11 17 6 9 1020.8 1020.7 0.0
08/08:30pm 13.9 12.1 9.3 74 2.4 W 9 15 5 8 1020.7 1020.6 0.0
08/08:00pm 15.7 11.8 7.2 57 4.2 W 17 26 9 14 1020.2 1020.1 0.0
08/07:30pm 16.0 12.5 7.2 56 4.4 W 15 24 8 13 1019.8 1019.7 0.0
08/07:00pm 16.0 12.1 7.2 56 4.4 W 17 22 9 12 1019.3 1019.2 0.0
08/06:30pm 16.2 12.3 7.2 55 4.5 W 17 32 9 17 1018.8 1018.8 0.0
08/06:00pm 16.5 12.6 6.9 53 4.7 WNW 17 24 9 13 1018.2 1018.2 0.0
08/05:30pm 16.6 13.5 7.3 54 4.6 WNW 13 22 7 12 1017.7 1017.7 0.0
08/05:00pm 17.1 13.2 6.9 51 5.1 WNW 17 26 9 14 1017.2 1017.2 0.0
08/04:30pm 17.8 13.3 7.0 49 5.4 WNW 20 28 11 15 1016.6 1016.6 0.0
08/04:00pm 18.0 14.0 6.8 48 5.6 WNW 17 26 9 14 1016.2 1016.2 0.0
08/03:30pm 19.0 14.0 6.5 44 6.2 W 22 33 12 18 1015.9 1015.9 0.0
08/03:00pm 19.2 13.4 6.3 43 6.4 W 26 39 14 21 1015.4 1015.4 0.0
08/02:30pm 19.6 14.3 6.7 43 6.5 W 24 41 13 22 1015.1 1015.1 0.0
08/02:00pm 19.5 14.1 6.3 42 6.6 W 24 35 13 19 1014.9 1014.9 0.0
08/01:30pm 19.4 13.9 5.8 41 6.7 W 24 35 13 19 1014.7 1014.7 0.0
08/01:00pm 19.5 14.0 5.9 41 6.7 W 24 39 13 21 1014.8 1014.8 0.0
08/12:30pm 18.9 12.6 5.7 42 6.5 W 28 37 15 20 1015.0 1015.0 0.0
08/12:00pm 18.6 12.9 5.1 41 6.5 W 24 33 13 18 1015.2 1015.2 0.0
08/11:30am 18.3 11.3 4.1 39 6.7 W 30 41 16 22 1015.5 1015.5 0.0
08/11:00am 18.0 11.4 4.2 40 6.5 W 28 46 15 25 1015.7 1015.7 0.0
08/10:57am 18.0 11.4 4.2 40 6.5 W 28 46 15 25 1015.6 1015.6 0.0
08/10:30am 17.6 12.0 5.2 44 6.0 W 24 43 13 23 1015.8 1015.8 0.0
08/10:00am 16.4 10.7 5.1 47 5.4 W 24 35 13 19 1015.9 1015.9 0.0
08/09:30am 15.4 8.6 5.0 50 4.9 W 30 44 16 24 1015.7 1015.7 0.0
08/09:00am 14.5 8.9 5.3 54 4.3 W 24 35 13 19 1016.1 1016.1 0.0
08/08:30am 13.6 7.9 4.7 55 4.1 WNW 24 39 13 21 1016.0 1016.0 0.0
08/08:00am 12.8 6.6 4.5 57 3.8 WNW 26 39 14 21 1015.9 1015.9 0.0
08/07:30am 12.1 7.0 4.3 59 3.5 WNW 20 32 11 17 1015.9 1015.9 0.0
08/07:00am 11.7 5.9 4.2 60 3.4 WNW 24 39 13 21 1015.3 1015.3 0.0
08/06:30am 11.5 5.2 4.0 60 3.4 WNW 26 41 14 22 1015.2 1015.2 0.0
08/06:06am 11.4 4.7 3.4 58 3.5 WNW 28 46 15 25 1015.1 1015.1 0.0
08/06:00am 11.4 5.0 3.4 58 3.5 WNW 26 39 14 21 1015.2 1015.2 0.0
08/05:30am 11.3 5.3 3.1 57 3.6 WNW 24 32 13 17 1015.2 1015.2 0.0
08/05:00am 11.1 4.7 3.2 58 3.5 WNW 26 43 14 23 1015.5 1015.5 0.0
08/04:30am 10.9 4.9 3.2 59 3.4 WNW 24 39 13 21 1015.3 1015.3 0.0
08/04:00am 10.9 4.5 3.0 58 3.4 WNW 26 41 14 22 1015.4 1015.4 0.0
08/03:30am 10.5 3.6 2.4 57 3.5 WNW 28 41 15 22 1015.8 1015.8 0.0
08/03:00am 10.3 4.1 2.2 57 3.4 WNW 24 39 13 21 1016.0 1016.0 0.0
08/02:30am 10.3 3.7 1.9 56 3.5 WNW 26 35 14 19 1016.2 1016.2 0.0
08/02:00am 10.0 3.7 1.4 55 3.6 WNW 24 35 13 19 1016.8 1016.8 0.0
08/01:30am 10.1 3.7 1.2 54 3.7 WNW 24 39 13 21 1016.8 1016.8 0.0
08/01:00am 10.0 4.4 1.1 54 3.7 WNW 20 32 11 17 1017.1 1017.1 0.0
08/12:30am 9.9 4.2 0.8 53 3.7 W 20 32 11 17 1017.5 1017.5 0.0
08/12:00am 9.7 4.7 1.1 55 3.5 W 17 28 9 15 1017.7 1017.7 0.0
 
Date/Time
EST
Temp
°C
App
Temp
°C
Dew
Point
°C
Rel
Hum
%
Delta-T
°C
Wind Press
QNH
hPa
Press
MSL
hPa
Rain since
9am
mm
Dir  Spd
km/h
Gust
km/h
Spd
kts
Gust
kts
07/11:30pm 9.7 4.7 1.1 55 3.5 W 17 28 9 15 1018.0 1018.0 0.0
07/11:00pm 10.0 4.4 0.9 53 3.7 W 20 33 11 18 1018.2 1018.2 0.0
07/10:30pm 10.3 4.7 1.2 53 3.8 W 20 30 11 16 1018.2 1018.2 0.0
07/10:00pm 10.4 4.8 1.2 53 3.8 W 20 32 11 17 1018.4 1018.4 0.0
07/09:30pm 10.2 4.5 0.3 50 4.0 W 20 32 11 17 1018.2 1018.2 0.0
07/09:00pm 10.5 4.8 0.5 50 4.1 W 20 28 11 15 1017.9 1017.9 0.0
07/08:30pm 11.0 5.9 0.7 49 4.3 W 17 24 9 13 1017.7 1017.7 0.0
07/08:00pm 10.4 5.9 -0.4 47 4.3 W 13 19 7 10 1017.5 1017.5 0.0
07/07:30pm 11.0 6.1 -0.8 44 4.7 W 15 20 8 11 1017.4 1017.4 0.0
07/07:00pm 11.0 6.1 -0.2 46 4.5 WNW 15 19 8 10 1016.8 1016.8 0.0
07/06:30pm 11.6 6.5 -1.9 39 5.3 W 15 22 8 12 1016.5 1016.5 0.0
07/06:00pm 12.0 7.3 -1.9 38 5.5 WSW 13 20 7 11 1016.0 1016.0 0.0
07/05:30pm 13.6 7.2 -1.6 35 6.1 WSW 22 32 12 17 1015.3 1015.3 0.0
07/05:00pm 14.1 7.3 -1.9 33 6.4 WSW 24 35 13 19 1014.7 1014.7 0.0
07/04:30pm 14.4 7.7 -1.2 34 6.4 SW 24 39 13 21 1014.5 1014.5 0.0
07/04:00pm 15.0 7.5 -1.1 33 6.7 SW 28 43 15 23 1014.3 1014.3 0.0
07/03:30pm 15.5 8.2 -0.3 34 6.7 WSW 28 41 15 22 1014.1 1014.1 0.0
07/03:00pm 15.3 7.6 -0.4 34 6.6 WSW 30 46 16 25 1013.8 1013.8 0.0
07/02:52pm 15.4 7.8 -2.1 30 7.1 WSW 28 46 15 25 1013.7 1013.7 0.0
07/02:30pm 15.3 8.2 -0.9 33 6.7 SW 26 39 14 21 1013.7 1013.7 0.0
07/02:00pm 15.7 9.2 0.3 35 6.6 SW 24 37 13 20 1013.6 1013.6 0.0
07/01:30pm 15.4 7.6 -0.8 33 6.8 WSW 30 44 16 24 1013.6 1013.6 0.0
07/01:00pm 15.0 7.1 -1.5 32 6.8 SW 30 43 16 23 1013.7 1013.7 0.0
07/12:30pm 15.2 6.8 -2.2 30 7.0 WSW 32 43 17 23 1013.4 1013.3 0.0
07/12:05pm 15.3 7.8 -1.7 31 7.0 WSW 28 52 15 28 1013.5 1013.4 0.0
07/12:00pm 15.5 9.4 0.1 35 6.6 WSW 22 41 12 22 1013.6 1013.6 0.0
07/11:30am 13.9 8.2 4.8 54 4.2 SW 24 37 13 20 1013.8 1013.8 0.0
07/11:00am 13.0 6.7 5.7 61 3.4 SW 28 37 15 20 1014.1 1014.1 0.0
07/10:30am 13.0 6.4 6.1 63 3.3 SSW 30 43 16 23 1014.0 1014.0 0.0
07/10:15am 12.1 5.8 7.4 73 2.3 SSW 30 48 16 26 1013.9 1013.9 0.0
07/10:00am 12.1 5.1 8.6 79 1.7 SSW 35 52 19 28 1013.7 1013.7 0.0
07/09:40am 14.9 8.0 2.4 43 5.6 WNW 28 46 15 25 1013.1 1013.0 0.0
07/09:30am 15.0 7.0 1.9 41 5.8 WNW 33 48 18 26 1012.6 1012.5 0.0
07/09:16am 15.3 8.4 2.5 42 5.7 WNW 28 46 15 25 1012.6 1012.5 0.0
07/09:00am 15.0 8.8 4.4 49 4.9 NW 26 39 14 21 1012.8 1012.7 0.0
07/08:30am 14.7 10.3 7.3 61 3.6 NW 20 28 11 15 1013.1 1013.0 0.0
07/08:00am 14.7 10.5 7.5 62 3.6 W 19 30 10 16 1013.0 1012.9 0.0
07/07:30am 14.3 9.8 7.1 62 3.5 WNW 20 32 11 17 1012.4 1012.3 0.0
07/07:00am 13.7 7.6 6.8 63 3.3 W 28 44 15 24 1012.0 1011.9 0.0
07/06:30am 13.1 8.6 6.0 62 3.4 W 19 26 10 14 1011.9 1011.8 0.0
07/06:00am 13.5 8.0 5.7 59 3.7 W 24 33 13 18 1011.7 1011.6 0.0
07/05:30am 13.4 8.2 5.3 58 3.8 W 22 39 12 21 1011.8 1011.7 0.0
07/05:00am 13.2 8.9 5.4 59 3.7 W 17 26 9 14 1011.8 1011.7 0.0
07/04:30am 12.5 9.7 5.0 60 3.5 W 9 19 5 10 1011.9 1011.8 0.0
07/04:00am 12.1 9.3 5.0 62 3.3 NW 9 15 5 8 1012.2 1012.1 0.0
07/03:30am 12.5 8.2 5.4 62 3.3 WNW 17 22 9 12 1012.1 1012.0 0.0
07/03:00am 12.3 9.2 5.5 63 3.2 WNW 11 17 6 9 1012.1 1012.0 0.0
07/02:30am 12.5 9.1 5.9 64 3.1 NW 13 20 7 11 1012.0 1011.9 0.0
07/02:00am 12.6 7.8 5.8 63 3.2 NW 20 28 11 15 1012.1 1012.0 0.0
07/01:30am 13.4 10.0 6.0 61 3.5 NNW 13 22 7 12 1012.6 1012.5 0.0
07/01:00am 14.2 9.2 6.3 59 3.8 NW 22 32 12 17 1012.8 1012.7 0.0
07/12:30am 14.4 9.4 6.5 59 3.8 WNW 22 33 12 18 1013.0 1012.9 0.0
07/12:00am 14.8 9.1 6.6 58 4.0 NW 26 39 14 21 1013.0 1012.9 0.0
 
Date/Time
EST
Temp
°C
App
Temp
°C
Dew
Point
°C
Rel
Hum
%
Delta-T
°C
Wind Press
QNH
hPa
Press
MSL
hPa
Rain since
9am
mm
Dir  Spd
km/h
Gust
km/h
Spd
kts
Gust
kts
06/11:30pm 13.8 9.9 7.3 65 3.2 NW 17 24 9 13 1013.4 1013.3 0.0
06/11:00pm 13.7 9.0 7.7 67 3.0 NW 22 28 12 15 1013.6 1013.6 0.0
06/10:30pm 13.9 10.3 8.3 69 2.8 NNW 17 22 9 12 1014.2 1014.2 0.0
06/10:00pm 14.5 10.9 8.5 67 3.0 NNW 17 20 9 11 1014.5 1014.5 0.0
06/09:30pm 15.3 11.5 9.0 66 3.2 NW 19 26 10 14 1014.9 1014.9 0.0
06/09:00pm 15.0 12.7 10.6 75 2.3 NW 13 17 7 9 1015.1 1015.1 0.0
06/08:30pm 15.9 12.8 10.4 70 2.9 NW 17 20 9 11 1015.1 1015.1 0.0
06/08:00pm 15.0 14.1 12.5 85 1.4 N 9 11 5 6 1015.1 1015.1 0.0
06/07:30pm 16.0 15.1 13.7 86 1.3 NNE 11 13 6 7 1015.2 1015.2 0.0
06/07:00pm 15.7 14.6 13.2 85 1.4 NNE 11 15 6 8 1015.4 1015.4 0.0
06/06:30pm 16.0 15.0 13.3 84 1.5 N 11 13 6 7 1015.6 1015.6 0.0

Other formats

Comma delimited format used in spreadsheet applications
http://www.bom.gov.au/fwo/IDN60801/IDN60801.94751.axf

JavaScript Object Notation format (JSON) in row-major order
http://www.bom.gov.au/fwo/IDN60801/IDN60801.94751.json

Data quality

Most of these data are generated automatically and are frequently updated. Quality checks on data are not normally performed. It is possible for incorrect values to appear. Refer to information at About Latest Weather Observations and please check the disclaimer before using these data.